大阪/伊丹 の空港の天気 - METARとTAF

大阪空港 ( RJOO / ITM ) - 兵庫県伊丹市
飛行場実況気象(Metar)
観測時間07/14 08:00 JST (07/13 23:00 UTC)
風向・風速南南東 2m/s
視程4000m
天気現象しゅう雨 もや
少しの雲 雲底高度 150m
全天の4割程度の雲 雲底高度 460m
少しの雲 雲底高度 610m
全天の8割程度の雲 雲底高度 1070m
気温25℃
湿度94%
気圧1002hPa
METARRJOO 132300Z 16004KT 090V230 4000 R32R/2000N R32L/P2000N SHRA BR FEW005 SCT015 FEW020CB BKN035 25/24 Q1002 RMK 1ST005 3CU015 1CB020 6CU035 A2961 CB 10KM W MOV E
過去の天気等 Google飛行場航空写真 Wunderground天気予報

過去48時間のMETAR

飛行場予報(TAF)
発表時間: 7/14 08:09 JST (7/13 23:09 UTC)
予報対象時間: 14日9時 JST ~ 15日15時 JST
風向・風速南西 5m/s
視程8000m
天気現象弱いしゅう雨
少しの雲 雲底高度 240m
全天の4割程度の雲 雲底高度 460m
全天の8割程度の雲 雲底高度 1070m
14日9時 JST ~ 14日13時 JST に一時的に
視程2000m
天気現象強いしゅう雨 もや
少しの雲 雲底高度 120m
全天の8割程度の雲 雲底高度 240m
全天の8割程度の雲 雲底高度 460m
少しの積乱雲 雲底高度 610m
14日13時 JST ~ 14日15時 JST に徐々に
風向・風速西南西 3m/s
TAF RJOO 132309Z 1400/1506 22010KT 8000 -SHRA FEW008 SCT015 BKN035
TEMPO 1400/1404 2000 +SHRA BR FEW004 BKN008 BKN015 FEW020CB
BECMG 1404/1406 24006KT
日本の空港のMETAR・TAFへのリンク

RJTT 東京国際空港
RJAA 新東京国際空港
RJBB 関西国際空港
RJOO 大阪空港
RJGG 中部国際空港
RJCC 新千歳空港
RJFF 福岡空港
ROAH 那覇空港


RJEC 旭川空港
RJCH 函館空港
RJCK 釧路空港
RJCM 女満別空港
RJCB 帯広空港
RJSA 青森空港
RJSS 仙台空港
RJSK 秋田空港
RJSF 福島空港
RJAH 茨城空港
RJSN 新潟空港
RJNT 富山空港
RJNK 小松飛行場
RJNS 静岡空港
RJOH 美保飛行場
RJOC 出雲空港
RJOB 岡山空港
RJOA 広島空港
RJOI 岩国飛行場
RJOT 高松空港
RJOM 松山空港
RJOK 高知空港
RJFR 北九州空港
RJFT 熊本空港
RJFU 長崎空港
RJFS 佐賀空港
RJFO 大分空港
RJFM 宮崎空港
RJFK 鹿児島空港
ROIG 石垣島空港
RJTY 横田飛行場
ROTM 普天間飛行場
RODN 嘉手納飛行場